createdAt,value
2019-03-03T00:00:23.962Z,4.20
2019-03-03T00:05:29.498Z,3.90
2019-03-03T00:10:35.287Z,3.90
2019-03-03T00:15:41.075Z,3.90
2019-03-03T00:20:46.511Z,4.00
2019-03-03T00:25:52.030Z,4.10
2019-03-03T00:30:57.826Z,4.20
2019-03-03T00:36:03.300Z,4.30
2019-03-03T00:41:13.829Z,4.40
2019-03-03T00:46:40.311Z,4.40
2019-03-03T00:51:50.731Z,4.50
2019-03-03T00:57:00.283Z,4.50
2019-03-03T01:02:10.506Z,4.60
2019-03-03T01:07:30.404Z,4.70
2019-03-03T01:12:41.047Z,4.70
2019-03-03T01:17:51.483Z,4.70
2019-03-03T01:24:00.371Z,4.80
2019-03-03T01:29:06.403Z,4.90
2019-03-03T01:34:11.347Z,5.00
2019-03-03T01:39:16.882Z,5.00
2019-03-03T01:44:22.334Z,5.00
2019-03-03T01:49:27.811Z,5.10
2019-03-03T01:54:33.994Z,5.10
2019-03-03T01:59:39.882Z,5.20
2019-03-03T02:04:45.679Z,5.20
2019-03-03T02:09:51.191Z,5.20
2019-03-03T02:14:56.656Z,5.20
2019-03-03T02:20:02.140Z,5.20
2019-03-03T02:25:08.050Z,5.30
2019-03-03T02:30:16.989Z,5.30
2019-03-03T02:35:22.784Z,5.40
2019-03-03T02:40:28.230Z,5.40
2019-03-03T02:45:33.710Z,5.50
2019-03-03T02:50:39.213Z,5.50
2019-03-03T02:55:45.036Z,5.60
2019-03-03T03:00:56.607Z,5.60
2019-03-03T03:06:06.120Z,5.60
2019-03-03T03:11:17.491Z,5.70
2019-03-03T03:16:30.980Z,5.70
2019-03-03T03:21:42.730Z,5.70
2019-03-03T03:26:58.093Z,5.80
2019-03-03T03:32:15.051Z,5.80
2019-03-03T03:37:24.597Z,5.80
2019-03-03T03:42:34.117Z,5.80
2019-03-03T03:47:58.786Z,5.80
2019-03-03T03:53:08.332Z,5.70
2019-03-03T03:58:19.193Z,5.70
2019-03-03T04:03:34.906Z,5.70
2019-03-03T04:08:45.536Z,5.70
2019-03-03T04:13:56.293Z,5.70
2019-03-03T04:19:05.803Z,5.80
2019-03-03T04:26:19.833Z,5.80
2019-03-03T04:32:30.248Z,5.80
2019-03-03T04:37:47.210Z,5.80
2019-03-03T04:42:57.787Z,5.80
2019-03-03T04:48:09.320Z,5.80
2019-03-03T04:53:18.889Z,5.80
2019-03-03T04:58:29.520Z,6.00
2019-03-03T05:03:43.340Z,6.00
2019-03-03T05:08:55.702Z,6.10
2019-03-03T05:14:05.255Z,6.10
2019-03-03T05:19:22.732Z,6.20
2019-03-03T05:24:34.186Z,6.20
2019-03-03T05:29:33.715Z,6.30
2019-03-03T05:34:39.196Z,6.30
2019-03-03T05:39:44.750Z,6.30
2019-03-03T05:44:50.302Z,6.40
2019-03-03T05:49:55.754Z,6.50
2019-03-03T05:55:01.576Z,6.50
2019-03-03T06:00:07.098Z,6.60
2019-03-03T06:05:12.870Z,6.60
2019-03-03T06:10:18.331Z,6.60
2019-03-03T06:15:24.134Z,6.70
2019-03-03T06:20:29.748Z,6.70
2019-03-03T06:25:35.281Z,6.80
2019-03-03T06:30:41.162Z,6.80
2019-03-03T06:35:46.659Z,6.90
2019-03-03T06:40:52.231Z,7.10
2019-03-03T06:45:57.690Z,7.20
2019-03-03T06:51:03.210Z,7.20
2019-03-03T06:56:08.731Z,7.30
2019-03-03T07:01:14.752Z,7.40
2019-03-03T07:06:20.594Z,7.50
2019-03-03T07:11:26.074Z,7.60
2019-03-03T07:16:31.976Z,7.80
2019-03-03T07:21:37.463Z,7.90
2019-03-03T07:26:43.315Z,8.00
2019-03-03T07:31:49.171Z,8.20
2019-03-03T07:36:54.980Z,8.30
2019-03-03T07:42:00.478Z,8.40
2019-03-03T07:47:06.385Z,8.60
2019-03-03T07:52:12.168Z,8.70
2019-03-03T07:57:17.657Z,8.80
2019-03-03T08:02:23.175Z,8.80
2019-03-03T08:07:28.647Z,9.10
2019-03-03T08:12:34.440Z,9.10
2019-03-03T08:17:39.975Z,9.20
2019-03-03T08:22:45.466Z,9.30
2019-03-03T08:27:51.354Z,9.30
2019-03-03T08:32:56.829Z,9.40
2019-03-03T08:38:02.491Z,9.50
2019-03-03T08:43:20.344Z,9.60
2019-03-03T08:48:30.891Z,9.60
2019-03-03T08:54:40.017Z,9.70
2019-03-03T08:59:53.547Z,9.80
2019-03-03T09:05:24.408Z,9.90
2019-03-03T09:10:35.333Z,10.10
2019-03-03T09:15:47.231Z,9.90
2019-03-03T09:20:58.738Z,10.00
2019-03-03T09:26:11.519Z,10.00
2019-03-03T09:31:22.310Z,9.90
2019-03-03T09:36:32.832Z,9.80
2019-03-03T09:41:46.852Z,9.90
2019-03-03T09:46:58.470Z,9.90
2019-03-03T09:52:10.345Z,9.90
2019-03-03T09:57:21.785Z,9.90
2019-03-03T10:02:46.770Z,10.00
2019-03-03T10:08:11.634Z,10.10
2019-03-03T10:13:22.638Z,10.20
2019-03-03T10:18:32.168Z,10.30
2019-03-03T10:23:43.231Z,10.30
2019-03-03T10:28:58.756Z,10.50
2019-03-03T10:34:09.892Z,10.50
2019-03-03T10:39:22.662Z,10.60
2019-03-03T10:44:33.366Z,10.60
2019-03-03T10:49:44.914Z,10.60
2019-03-03T10:55:01.770Z,10.40
2019-03-03T11:00:48.734Z,10.40
2019-03-03T11:06:03.399Z,10.50
2019-03-03T11:11:14.009Z,10.50
2019-03-03T11:16:38.658Z,10.60
2019-03-03T11:21:48.196Z,10.60
2019-03-03T11:26:58.888Z,10.60
2019-03-03T11:32:09.786Z,10.70
2019-03-03T11:37:22.564Z,10.70
2019-03-03T11:42:36.153Z,10.70
2019-03-03T11:47:51.263Z,10.70
2019-03-03T11:53:18.750Z,10.80
2019-03-03T12:00:31.764Z,10.80
2019-03-03T12:05:42.141Z,10.80
2019-03-03T12:10:54.115Z,10.90
2019-03-03T12:16:05.103Z,10.90
2019-03-03T12:21:16.950Z,11.10
2019-03-03T12:26:58.056Z,11.00
2019-03-03T12:33:11.605Z,10.80
2019-03-03T12:38:29.193Z,10.50
2019-03-03T12:43:41.867Z,10.40
2019-03-03T12:48:51.792Z,10.40
2019-03-03T12:54:06.472Z,10.40
2019-03-03T13:00:18.581Z,10.30
2019-03-03T13:05:36.420Z,10.40
2019-03-03T13:10:46.801Z,10.40
2019-03-03T13:16:01.432Z,10.40
2019-03-03T13:21:13.150Z,10.50
2019-03-03T13:27:22.110Z,10.50
2019-03-03T13:32:31.977Z,10.60
2019-03-03T13:37:42.770Z,10.60
2019-03-03T13:43:04.610Z,10.50
2019-03-03T13:48:10.433Z,10.50
2019-03-03T13:53:16.010Z,10.60
2019-03-03T13:58:21.838Z,10.60
2019-03-03T14:03:27.657Z,10.70
2019-03-03T14:08:33.120Z,10.70
2019-03-03T14:13:38.742Z,10.70
2019-03-03T14:18:44.560Z,10.70
2019-03-03T14:23:50.479Z,10.80
2019-03-03T14:28:56.062Z,10.90
2019-03-03T14:34:02.269Z,11.00
2019-03-03T14:39:08.531Z,11.00
2019-03-03T14:44:14.087Z,11.00
2019-03-03T14:49:19.954Z,11.00
2019-03-03T14:54:25.791Z,10.90
2019-03-03T14:59:31.339Z,10.80
2019-03-03T15:04:37.286Z,10.70
2019-03-03T15:09:42.751Z,10.70
2019-03-03T15:14:48.867Z,10.60
2019-03-03T15:19:54.373Z,10.60
2019-03-03T15:25:00.597Z,10.50
2019-03-03T15:30:06.995Z,10.40
2019-03-03T15:35:12.486Z,10.30
2019-03-03T15:40:19.214Z,10.30
2019-03-03T15:45:25.398Z,10.20
2019-03-03T15:50:30.931Z,10.10
2019-03-03T15:55:36.482Z,10.00
2019-03-03T16:00:42.134Z,10.00
2019-03-03T16:05:47.953Z,9.90
2019-03-03T16:10:53.469Z,10.00
2019-03-03T16:15:59.244Z,10.20
2019-03-03T16:21:04.822Z,9.90
2019-03-03T16:26:10.647Z,9.80
2019-03-03T16:31:22.781Z,9.70
2019-03-03T16:36:28.247Z,9.60
2019-03-03T16:41:34.417Z,9.70
2019-03-03T16:46:40.222Z,9.60
2019-03-03T16:51:46.450Z,9.60
2019-03-03T16:56:51.927Z,9.50
2019-03-03T17:01:57.441Z,9.50
2019-03-03T17:07:03.655Z,9.40
2019-03-03T17:12:09.674Z,9.40
2019-03-03T17:17:15.499Z,9.40
2019-03-03T17:22:21.295Z,9.40
2019-03-03T17:27:26.843Z,9.40
2019-03-03T17:32:32.302Z,9.40
2019-03-03T17:37:38.807Z,9.40
2019-03-03T17:42:44.788Z,9.40
2019-03-03T17:47:50.478Z,9.40
2019-03-03T17:52:56.007Z,9.40
2019-03-03T17:58:01.763Z,9.30
2019-03-03T18:03:07.244Z,9.30
2019-03-03T18:08:13.046Z,9.30
2019-03-03T18:13:18.538Z,9.30
2019-03-03T18:18:24.074Z,9.40
2019-03-03T18:23:29.820Z,9.40
2019-03-03T18:28:35.187Z,9.40
2019-03-03T18:33:42.446Z,9.40
2019-03-03T18:38:48.216Z,9.30
2019-03-03T18:43:53.711Z,9.40
2019-03-03T18:48:59.175Z,9.40
2019-03-03T18:54:04.951Z,9.40
2019-03-03T18:59:11.435Z,9.40
2019-03-03T19:04:16.863Z,9.40
2019-03-03T19:09:22.639Z,9.40
2019-03-03T19:14:28.743Z,9.50
2019-03-03T19:19:33.922Z,9.90
2019-03-03T19:24:39.368Z,9.80
2019-03-03T19:29:45.172Z,9.50
2019-03-03T19:34:50.655Z,9.40
2019-03-03T19:39:56.445Z,9.40
2019-03-03T19:45:01.920Z,9.40
2019-03-03T19:50:09.670Z,9.30
2019-03-03T19:55:15.414Z,9.40
2019-03-03T20:00:35.076Z,9.30
2019-03-03T20:05:31.839Z,9.30
2019-03-03T20:10:37.333Z,9.30
2019-03-03T20:15:43.134Z,9.40
2019-03-03T20:20:49.454Z,9.30
2019-03-03T20:25:55.413Z,9.40
2019-03-03T20:31:01.281Z,9.40
2019-03-03T20:36:07.504Z,9.40
2019-03-03T20:41:13.059Z,9.40
2019-03-03T20:46:20.091Z,9.50
2019-03-03T20:51:24.000Z,9.40
2019-03-03T20:56:29.554Z,9.50
2019-03-03T21:01:35.335Z,9.50
2019-03-03T21:06:40.814Z,9.60
2019-03-03T21:11:46.245Z,9.60
2019-03-03T21:16:51.742Z,9.60
2019-03-03T21:21:57.181Z,9.60
2019-03-03T21:27:02.939Z,9.70
2019-03-03T21:32:08.474Z,9.60
2019-03-03T21:37:14.071Z,9.70
2019-03-03T21:42:19.538Z,9.70
2019-03-03T21:47:25.057Z,9.80
2019-03-03T21:52:30.883Z,9.70
2019-03-03T21:57:37.087Z,9.70
2019-03-03T22:02:42.546Z,9.70
2019-03-03T22:07:48.687Z,9.70
2019-03-03T22:12:54.180Z,9.70
2019-03-03T22:17:59.684Z,9.70
2019-03-03T22:23:05.479Z,9.70
2019-03-03T22:28:11.218Z,9.80
2019-03-03T22:33:17.073Z,9.80
2019-03-03T22:38:22.543Z,9.70
2019-03-03T22:43:27.961Z,9.70
2019-03-03T22:48:33.765Z,9.60
2019-03-03T22:53:39.554Z,9.60
2019-03-03T22:58:44.973Z,9.50
2019-03-03T23:04:14.711Z,9.50
2019-03-03T23:10:23.861Z,9.40
2019-03-03T23:15:43.314Z,9.40
2019-03-03T23:21:03.321Z,9.30
2019-03-03T23:26:16.278Z,9.30
2019-03-03T23:31:14.568Z,9.30
2019-03-03T23:36:19.974Z,9.20
2019-03-03T23:41:25.390Z,9.30
2019-03-03T23:46:30.851Z,9.30
2019-03-03T23:51:36.295Z,9.40
2019-03-03T23:56:41.735Z,9.40
